createdAt,value
2022-07-30T00:01:09.511Z,9.07
2022-07-30T00:03:54.469Z,8.90
2022-07-30T00:06:39.634Z,7.97
2022-07-30T00:09:24.435Z,10.80
2022-07-30T00:12:09.604Z,9.63
2022-07-30T00:14:54.534Z,7.97
2022-07-30T00:17:39.724Z,11.18
2022-07-30T00:20:27.897Z,12.25
2022-07-30T00:23:12.978Z,9.00
2022-07-30T00:25:58.437Z,8.20
2022-07-30T00:28:43.280Z,10.68
2022-07-30T00:31:28.783Z,8.95
2022-07-30T00:34:14.032Z,8.13
2022-07-30T00:36:59.482Z,9.80
2022-07-30T00:39:44.642Z,9.80
2022-07-30T00:42:44.352Z,8.65
2022-07-30T00:45:30.614Z,8.73
2022-07-30T00:48:16.255Z,9.43
2022-07-30T00:51:01.251Z,9.85
2022-07-30T00:53:46.303Z,11.85
2022-07-30T00:56:32.241Z,10.38
2022-07-30T00:59:17.325Z,9.25
2022-07-30T01:02:02.970Z,10.13
2022-07-30T01:04:47.813Z,9.20
2022-07-30T01:07:33.128Z,9.88
2022-07-30T01:10:18.327Z,10.55
2022-07-30T01:13:05.022Z,10.85
2022-07-30T01:15:49.988Z,9.93
2022-07-30T01:18:54.146Z,10.20
2022-07-30T01:21:44.346Z,13.00
2022-07-30T01:24:39.669Z,15.45
2022-07-30T01:27:28.260Z,11.93
2022-07-30T01:30:17.303Z,13.00
2022-07-30T01:33:04.858Z,11.57
2022-07-30T01:35:51.927Z,12.63
2022-07-30T01:38:39.584Z,15.27
2022-07-30T01:41:25.342Z,13.43
2022-07-30T01:44:13.682Z,17.00
2022-07-30T01:47:00.293Z,15.80
2022-07-30T01:49:46.920Z,17.02
2022-07-30T01:52:34.333Z,15.43
2022-07-30T01:55:26.562Z,16.98
2022-07-30T01:58:12.355Z,16.55
2022-07-30T02:00:58.671Z,15.02
2022-07-30T02:03:44.834Z,14.25
2022-07-30T02:06:36.786Z,12.20
2022-07-30T02:09:30.751Z,13.65
2022-07-30T02:12:29.901Z,16.77
2022-07-30T02:15:29.689Z,13.20
2022-07-30T02:18:43.218Z,18.27
2022-07-30T02:21:37.421Z,13.55
2022-07-30T02:24:27.931Z,14.38
2022-07-30T02:27:19.474Z,13.45
2022-07-30T02:30:06.620Z,14.27
2022-07-30T02:32:55.138Z,14.00
2022-07-30T02:35:40.859Z,14.68
2022-07-30T02:38:27.976Z,12.25
2022-07-30T02:41:13.923Z,14.27
2022-07-30T02:44:00.119Z,14.30
2022-07-30T02:46:48.888Z,13.52
2022-07-30T02:49:54.559Z,16.13
2022-07-30T02:52:41.061Z,13.40
2022-07-30T02:55:29.813Z,14.18
2022-07-30T02:58:21.680Z,14.18
2022-07-30T03:01:09.239Z,14.65
2022-07-30T03:03:57.697Z,16.70
2022-07-30T03:06:44.857Z,13.82
2022-07-30T03:09:51.918Z,13.48
2022-07-30T03:12:37.356Z,12.55
2022-07-30T03:15:22.683Z,13.95
2022-07-30T03:18:12.187Z,14.52
2022-07-30T03:21:00.088Z,13.95
2022-07-30T03:23:47.489Z,12.52
2022-07-30T03:26:35.940Z,11.05
2022-07-30T03:29:23.884Z,12.95
2022-07-30T03:32:10.005Z,11.27
2022-07-30T03:35:05.679Z,12.65
2022-07-30T03:37:53.366Z,10.65
2022-07-30T03:40:40.937Z,11.05
2022-07-30T03:43:33.856Z,10.35
2022-07-30T03:46:21.764Z,11.32
2022-07-30T03:49:09.945Z,9.88
2022-07-30T03:52:01.596Z,8.73
2022-07-30T03:54:47.375Z,11.70
2022-07-30T03:58:11.247Z,9.18
2022-07-30T04:00:56.589Z,10.68
2022-07-30T04:03:42.045Z,7.88
2022-07-30T04:06:27.172Z,9.80
2022-07-30T04:09:12.970Z,10.13
2022-07-30T04:11:58.724Z,10.07
2022-07-30T04:14:45.742Z,10.27
2022-07-30T04:17:48.557Z,9.60
2022-07-30T04:20:39.379Z,9.07
2022-07-30T04:23:24.511Z,10.00
2022-07-30T04:26:10.076Z,10.98
2022-07-30T04:28:55.193Z,12.82
2022-07-30T04:31:41.380Z,10.27
2022-07-30T04:34:51.132Z,9.38
2022-07-30T04:37:43.981Z,10.38
2022-07-30T04:40:30.798Z,11.60
2022-07-30T04:43:16.765Z,11.50
2022-07-30T04:46:02.094Z,10.95
2022-07-30T04:48:48.014Z,9.60
2022-07-30T04:51:36.602Z,10.68
2022-07-30T04:54:24.240Z,10.75
2022-07-30T04:57:14.177Z,9.85
2022-07-30T05:00:00.049Z,9.70
2022-07-30T05:02:46.655Z,9.07
2022-07-30T05:05:33.252Z,11.02
2022-07-30T05:08:18.562Z,12.93
2022-07-30T05:11:04.200Z,12.70
2022-07-30T05:13:49.211Z,11.75
2022-07-30T05:16:39.064Z,11.43
2022-07-30T05:19:24.620Z,10.35
2022-07-30T05:22:10.421Z,9.65
2022-07-30T05:24:56.536Z,10.80
2022-07-30T05:27:41.391Z,11.38
2022-07-30T05:30:27.488Z,10.43
2022-07-30T05:33:16.069Z,7.75
2022-07-30T05:36:01.839Z,7.38
2022-07-30T05:38:48.093Z,8.07
2022-07-30T05:41:51.713Z,8.95
2022-07-30T05:45:00.119Z,8.05
2022-07-30T05:47:45.291Z,9.10
2022-07-30T05:50:30.927Z,8.70
2022-07-30T05:53:15.760Z,9.18
2022-07-30T05:56:19.648Z,7.50
2022-07-30T05:59:14.261Z,7.85
2022-07-30T06:02:25.444Z,7.15
2022-07-30T06:05:17.608Z,8.00
2022-07-30T06:08:03.937Z,6.78
2022-07-30T06:10:49.156Z,8.20
2022-07-30T06:13:34.940Z,7.38
2022-07-30T06:16:19.913Z,8.57
2022-07-30T06:19:04.960Z,8.65
2022-07-30T06:22:06.574Z,7.00
2022-07-30T06:24:57.162Z,6.78
2022-07-30T06:27:44.769Z,8.32
2022-07-30T06:30:31.135Z,8.18
2022-07-30T06:33:17.245Z,7.82
2022-07-30T06:36:02.986Z,7.25
2022-07-30T06:38:55.923Z,8.98
2022-07-30T06:41:53.067Z,7.97
2022-07-30T06:44:38.483Z,8.68
2022-07-30T06:47:34.436Z,8.63
2022-07-30T06:50:20.230Z,9.13
2022-07-30T06:53:05.181Z,8.43
2022-07-30T06:56:10.112Z,7.50
2022-07-30T06:59:12.496Z,6.93
2022-07-30T07:02:16.349Z,6.50
2022-07-30T07:05:36.743Z,8.57
2022-07-30T07:08:25.280Z,7.55
2022-07-30T07:11:13.007Z,13.88
2022-07-30T07:14:19.188Z,21.25
2022-07-30T07:17:04.575Z,15.85
2022-07-30T07:20:09.051Z,15.30
2022-07-30T07:23:06.713Z,9.82
2022-07-30T07:25:55.676Z,7.85
2022-07-30T07:28:42.277Z,7.80
2022-07-30T07:32:05.641Z,5.80
2022-07-30T07:34:32.141Z,6.40
2022-07-30T07:37:17.259Z,4.13
2022-07-30T07:40:02.457Z,5.80
2022-07-30T07:42:50.206Z,5.30
2022-07-30T07:45:37.651Z,4.03
2022-07-30T07:48:25.700Z,4.50
2022-07-30T07:51:16.912Z,9.60
2022-07-30T07:54:23.438Z,5.97
2022-07-30T07:57:12.240Z,5.93
2022-07-30T08:00:00.563Z,9.77
2022-07-30T08:02:49.561Z,9.15
2022-07-30T08:05:58.171Z,9.90
2022-07-30T08:09:02.052Z,4.15
2022-07-30T08:12:07.609Z,5.05
2022-07-30T08:15:31.269Z,5.63
2022-07-30T08:18:36.803Z,5.63
2022-07-30T08:21:39.377Z,5.05
2022-07-30T08:24:25.090Z,4.18
2022-07-30T08:27:09.973Z,4.00
2022-07-30T08:29:55.076Z,3.75
2022-07-30T08:32:40.077Z,3.95
2022-07-30T08:35:24.993Z,6.43
2022-07-30T08:38:10.595Z,7.50
2022-07-30T08:40:56.167Z,3.22
2022-07-30T08:43:41.952Z,4.95
2022-07-30T08:46:31.158Z,5.07
2022-07-30T08:49:26.999Z,3.78
2022-07-30T08:52:12.685Z,3.83
2022-07-30T08:55:01.305Z,5.10
2022-07-30T08:57:46.743Z,4.88
2022-07-30T09:00:32.019Z,3.80
2022-07-30T09:03:16.995Z,3.90
2022-07-30T09:06:03.652Z,3.60
2022-07-30T09:08:49.417Z,3.13
2022-07-30T09:11:35.926Z,3.47
2022-07-30T09:14:21.210Z,5.45
2022-07-30T09:17:16.752Z,5.32
2022-07-30T09:20:03.627Z,4.78
2022-07-30T09:22:54.181Z,5.70
2022-07-30T09:25:51.634Z,4.18
2022-07-30T09:29:21.173Z,4.15
2022-07-30T09:32:24.951Z,7.28
2022-07-30T09:35:29.050Z,3.28
2022-07-30T09:38:29.535Z,4.38
2022-07-30T09:41:39.196Z,3.30
2022-07-30T09:44:30.475Z,6.28
2022-07-30T09:47:32.828Z,4.43
2022-07-30T09:50:30.480Z,4.57
2022-07-30T09:53:19.034Z,5.50
2022-07-30T09:56:30.168Z,5.85
2022-07-30T09:59:27.243Z,5.00
2022-07-30T10:02:20.524Z,3.28
2022-07-30T10:05:39.116Z,4.47
2022-07-30T10:08:45.912Z,4.95
2022-07-30T10:11:31.416Z,3.85
2022-07-30T10:14:18.043Z,3.88
2022-07-30T10:17:17.472Z,6.57
2022-07-30T10:20:27.174Z,3.80
2022-07-30T10:23:32.672Z,3.50
2022-07-30T10:26:36.709Z,4.45
2022-07-30T10:29:51.720Z,3.55
2022-07-30T10:32:38.036Z,3.20
2022-07-30T10:35:34.393Z,6.80
2022-07-30T10:38:41.228Z,6.28
2022-07-30T10:41:48.536Z,5.65
2022-07-30T10:45:01.695Z,4.78
2022-07-30T10:47:49.216Z,4.60
2022-07-30T10:50:50.751Z,3.05
2022-07-30T10:53:40.033Z,2.58
2022-07-30T10:56:25.911Z,3.80
2022-07-30T10:59:11.492Z,3.35
2022-07-30T11:01:59.980Z,3.67
2022-07-30T11:04:49.691Z,4.68
2022-07-30T11:07:34.824Z,3.30
2022-07-30T11:10:40.737Z,4.88
2022-07-30T11:13:49.816Z,3.28
2022-07-30T11:16:54.769Z,3.58
2022-07-30T11:20:07.104Z,2.60
2022-07-30T11:23:18.879Z,5.05
2022-07-30T11:26:05.299Z,3.55
2022-07-30T11:28:52.069Z,3.47
2022-07-30T11:31:55.659Z,3.88
2022-07-30T11:34:43.719Z,3.22
2022-07-30T11:37:31.811Z,3.30
2022-07-30T11:40:17.709Z,3.78
2022-07-30T11:43:36.107Z,3.95
2022-07-30T11:46:28.637Z,3.63
2022-07-30T11:49:15.211Z,3.85
2022-07-30T11:52:00.950Z,3.72
2022-07-30T11:54:55.521Z,5.80
2022-07-30T11:57:42.078Z,4.00
2022-07-30T12:00:47.349Z,4.80
2022-07-30T12:03:33.050Z,6.22
2022-07-30T12:06:19.396Z,4.80
2022-07-30T12:09:04.420Z,3.58
2022-07-30T12:11:49.393Z,6.95
2022-07-30T12:14:38.416Z,6.72
2022-07-30T12:17:51.377Z,5.45
2022-07-30T12:20:42.242Z,3.13
2022-07-30T12:23:29.032Z,5.93
2022-07-30T12:26:24.336Z,5.30
2022-07-30T12:29:13.422Z,3.53
2022-07-30T12:31:58.444Z,4.93
2022-07-30T12:34:55.343Z,4.25
2022-07-30T12:37:40.629Z,3.45
2022-07-30T12:40:25.347Z,5.03
2022-07-30T12:43:13.535Z,4.03
2022-07-30T12:45:59.092Z,3.53
2022-07-30T12:48:50.514Z,4.40
2022-07-30T12:51:37.331Z,4.55
2022-07-30T12:54:25.722Z,3.58
2022-07-30T12:57:10.815Z,4.03
2022-07-30T13:00:06.800Z,5.18
2022-07-30T13:02:54.149Z,3.88
2022-07-30T13:05:57.282Z,5.03
2022-07-30T13:08:49.777Z,4.38
2022-07-30T13:11:48.998Z,4.93
2022-07-30T13:14:34.461Z,4.85
2022-07-30T13:17:19.569Z,3.78
2022-07-30T13:20:05.255Z,4.45
2022-07-30T13:22:50.597Z,5.25
2022-07-30T13:25:40.333Z,4.22
2022-07-30T13:28:26.441Z,4.65
2022-07-30T13:31:12.260Z,5.25
2022-07-30T13:33:57.892Z,5.93
2022-07-30T13:36:43.526Z,4.72
2022-07-30T13:39:28.631Z,3.92
2022-07-30T13:42:13.849Z,4.22
2022-07-30T13:44:58.611Z,3.95
2022-07-30T13:47:43.917Z,4.30
2022-07-30T13:50:29.629Z,5.80
2022-07-30T13:53:14.784Z,4.78
2022-07-30T13:55:59.896Z,4.15
2022-07-30T13:58:45.224Z,5.07
2022-07-30T14:01:30.377Z,4.03
2022-07-30T14:04:15.257Z,5.90
2022-07-30T14:07:00.797Z,4.50
2022-07-30T14:09:47.709Z,5.03
2022-07-30T14:12:34.814Z,5.57
2022-07-30T14:15:20.765Z,4.57
2022-07-30T14:18:05.932Z,3.03
2022-07-30T14:20:53.018Z,5.28
2022-07-30T14:23:38.713Z,4.45
2022-07-30T14:26:23.851Z,4.93
2022-07-30T14:29:09.986Z,3.50
2022-07-30T14:31:55.771Z,3.83
2022-07-30T14:34:40.910Z,4.97
2022-07-30T14:37:34.936Z,4.03
2022-07-30T14:40:19.987Z,4.47
2022-07-30T14:43:05.950Z,3.85
2022-07-30T14:45:52.799Z,4.45
2022-07-30T14:48:37.925Z,5.25
2022-07-30T14:51:26.363Z,4.43
2022-07-30T14:54:12.205Z,6.18
2022-07-30T14:56:59.771Z,6.35
2022-07-30T14:59:44.865Z,4.78
2022-07-30T15:02:30.024Z,5.55
2022-07-30T15:05:14.778Z,5.03
2022-07-30T15:07:59.878Z,5.22
2022-07-30T15:10:44.754Z,7.85
2022-07-30T15:13:30.323Z,6.75
2022-07-30T15:16:18.539Z,5.75
2022-07-30T15:19:03.524Z,8.18
2022-07-30T15:21:48.440Z,5.32
2022-07-30T15:24:33.342Z,5.50
2022-07-30T15:27:18.357Z,6.88
2022-07-30T15:30:04.474Z,4.60
2022-07-30T15:32:49.751Z,5.00
2022-07-30T15:35:34.511Z,5.07
2022-07-30T15:38:19.542Z,4.78
2022-07-30T15:41:05.380Z,5.45
2022-07-30T15:43:50.386Z,5.53
2022-07-30T15:46:35.388Z,6.18
2022-07-30T15:49:20.670Z,4.55
2022-07-30T15:52:07.811Z,4.97
2022-07-30T15:54:52.797Z,7.38
2022-07-30T15:57:37.897Z,4.57
2022-07-30T16:00:23.086Z,5.82
2022-07-30T16:03:08.483Z,6.00
2022-07-30T16:05:53.315Z,4.97
2022-07-30T16:08:38.341Z,5.38
2022-07-30T16:11:23.847Z,4.10
2022-07-30T16:14:08.840Z,4.75
2022-07-30T16:16:53.903Z,4.75
2022-07-30T16:19:39.281Z,5.53
2022-07-30T16:22:24.407Z,4.50
2022-07-30T16:25:09.538Z,4.53
2022-07-30T16:27:54.220Z,4.93
2022-07-30T16:30:50.475Z,3.53
2022-07-30T16:33:36.198Z,3.75
2022-07-30T16:36:21.183Z,6.90
2022-07-30T16:39:06.258Z,3.15
2022-07-30T16:41:51.199Z,4.82
2022-07-30T16:44:36.215Z,6.57
2022-07-30T16:47:21.067Z,5.43
2022-07-30T16:50:06.513Z,5.95
2022-07-30T16:52:51.695Z,5.30
2022-07-30T16:55:36.673Z,4.70
2022-07-30T16:58:21.599Z,4.75
2022-07-30T17:01:13.932Z,6.03
2022-07-30T17:03:58.988Z,5.07
2022-07-30T17:06:44.447Z,6.00
2022-07-30T17:09:36.383Z,5.32
2022-07-30T17:12:23.322Z,4.53
2022-07-30T17:15:12.074Z,7.38
2022-07-30T17:17:57.022Z,9.23
2022-07-30T17:20:43.011Z,8.65
2022-07-30T17:23:28.129Z,10.15
2022-07-30T17:26:12.986Z,7.45
2022-07-30T17:28:58.140Z,9.55
2022-07-30T17:31:44.707Z,10.35
2022-07-30T17:34:29.801Z,8.98
2022-07-30T17:37:15.648Z,7.72
2022-07-30T17:40:26.620Z,12.57
2022-07-30T17:43:06.970Z,12.65
2022-07-30T17:45:52.108Z,14.88
2022-07-30T17:48:37.361Z,13.95
2022-07-30T17:51:22.494Z,13.35
2022-07-30T17:54:09.648Z,12.75
2022-07-30T17:56:54.697Z,15.38
2022-07-30T17:59:39.773Z,10.60
2022-07-30T18:02:27.663Z,9.43
2022-07-30T18:05:15.044Z,9.60
2022-07-30T18:07:59.655Z,9.75
2022-07-30T18:10:44.625Z,9.75
2022-07-30T18:13:29.571Z,13.00
2022-07-30T18:16:15.019Z,9.63
2022-07-30T18:19:00.140Z,11.57
2022-07-30T18:21:45.567Z,10.32
2022-07-30T18:24:31.575Z,8.48
2022-07-30T18:27:16.494Z,8.90
2022-07-30T18:30:01.722Z,7.57
2022-07-30T18:32:47.282Z,9.80
2022-07-30T18:35:32.325Z,11.75
2022-07-30T18:38:18.094Z,8.60
2022-07-30T18:41:03.473Z,8.30
2022-07-30T18:43:48.772Z,8.15
2022-07-30T18:46:33.625Z,8.82
2022-07-30T18:49:36.248Z,8.85
2022-07-30T18:52:22.125Z,9.32
2022-07-30T18:55:08.555Z,9.07
2022-07-30T18:57:53.544Z,7.03
2022-07-30T19:00:42.201Z,7.90
2022-07-30T19:03:27.026Z,8.07
2022-07-30T19:06:12.618Z,8.80
2022-07-30T19:08:59.552Z,9.45
2022-07-30T19:11:45.998Z,9.38
2022-07-30T19:14:31.198Z,9.63
2022-07-30T19:17:16.191Z,9.93
2022-07-30T19:20:02.760Z,10.73
2022-07-30T19:22:47.786Z,8.43
2022-07-30T19:25:33.779Z,9.32
2022-07-30T19:28:18.698Z,9.10
2022-07-30T19:31:04.332Z,8.65
2022-07-30T19:33:49.515Z,9.70
2022-07-30T19:36:34.670Z,8.52
2022-07-30T19:39:21.226Z,7.45
2022-07-30T19:42:27.015Z,9.38
2022-07-30T19:45:12.143Z,8.75
2022-07-30T19:47:58.765Z,8.65
2022-07-30T19:50:44.911Z,10.23
2022-07-30T19:53:31.160Z,8.30
2022-07-30T19:56:19.541Z,8.25
2022-07-30T19:59:14.488Z,12.35
2022-07-30T20:02:00.399Z,10.15
2022-07-30T20:04:45.943Z,9.60
2022-07-30T20:07:30.875Z,8.25
2022-07-30T20:10:20.406Z,7.28
2022-07-30T20:13:07.395Z,8.30
2022-07-30T20:15:53.495Z,9.10
2022-07-30T20:18:39.087Z,10.23
2022-07-30T20:21:56.324Z,7.50
2022-07-30T20:24:29.594Z,8.82
2022-07-30T20:27:36.349Z,9.25
2022-07-30T20:30:25.269Z,8.13
2022-07-30T20:35:56.459Z,6.97
2022-07-30T20:38:43.918Z,6.00
2022-07-30T20:41:28.703Z,7.57
2022-07-30T20:44:23.493Z,6.63
2022-07-30T20:47:10.285Z,7.55
2022-07-30T20:49:55.388Z,9.65
2022-07-30T20:52:46.413Z,7.20
2022-07-30T20:55:33.400Z,7.18
2022-07-30T20:58:19.151Z,8.73
2022-07-30T21:01:04.723Z,8.40
2022-07-30T21:03:50.187Z,6.40
2022-07-30T21:06:41.832Z,7.13
2022-07-30T21:09:49.694Z,6.40
2022-07-30T21:12:36.071Z,8.15
2022-07-30T21:15:23.359Z,7.47
2022-07-30T21:18:09.708Z,6.25
2022-07-30T21:20:54.654Z,6.03
2022-07-30T21:23:42.123Z,6.22
2022-07-30T21:26:28.216Z,6.53
2022-07-30T21:29:13.006Z,5.47
2022-07-30T21:32:08.861Z,5.22
2022-07-30T21:34:54.259Z,8.52
2022-07-30T21:37:42.999Z,7.55
2022-07-30T21:40:28.948Z,6.75
2022-07-30T21:43:14.420Z,6.70
2022-07-30T21:46:07.943Z,5.35
2022-07-30T21:48:58.421Z,6.82
2022-07-30T21:51:44.499Z,6.65
2022-07-30T21:54:31.069Z,5.38
2022-07-30T21:57:26.334Z,6.97
2022-07-30T22:00:21.850Z,7.88
2022-07-30T22:03:10.392Z,6.15
2022-07-30T22:06:12.895Z,5.72
2022-07-30T22:08:58.201Z,6.35
2022-07-30T22:11:45.355Z,8.95
2022-07-30T22:14:31.481Z,5.97
2022-07-30T22:17:23.701Z,5.32
2022-07-30T22:20:22.237Z,6.53
2022-07-30T22:23:07.506Z,5.15
2022-07-30T22:25:53.418Z,6.05
2022-07-30T22:28:44.967Z,6.38
2022-07-30T22:31:30.744Z,7.88
2022-07-30T22:34:16.759Z,7.35
2022-07-30T22:37:02.025Z,6.72
2022-07-30T22:39:51.535Z,7.28
2022-07-30T22:45:48.424Z,7.50
2022-07-30T22:48:34.479Z,6.78
2022-07-30T22:51:19.383Z,6.97
2022-07-30T22:54:12.764Z,6.80
2022-07-30T22:56:58.106Z,6.45
2022-07-30T23:00:00.315Z,7.60
2022-07-30T23:02:46.918Z,5.70
2022-07-30T23:05:32.196Z,6.90
2022-07-30T23:08:20.176Z,7.10
2022-07-30T23:11:15.642Z,7.25
2022-07-30T23:14:00.598Z,8.90
2022-07-30T23:16:50.404Z,7.18
2022-07-30T23:19:35.274Z,6.82
2022-07-30T23:22:20.242Z,8.45
2022-07-30T23:25:06.959Z,7.72
2022-07-30T23:27:51.596Z,7.50
2022-07-30T23:30:36.537Z,10.20
2022-07-30T23:33:21.657Z,6.90
2022-07-30T23:36:08.084Z,6.40
2022-07-30T23:38:53.200Z,7.43
2022-07-30T23:41:38.071Z,6.32
2022-07-30T23:44:23.225Z,8.90
2022-07-30T23:47:07.980Z,8.77
2022-07-30T23:49:52.912Z,6.25
2022-07-30T23:52:37.956Z,7.55
2022-07-30T23:55:23.087Z,7.35
2022-07-30T23:58:08.987Z,8.80
